I-5 : SR-198 Atmospheric Data: 04/18/2019 Summary  Detailed Graphs  Station List

  Temperature     Wind Precipitation Visibility
Timestamp Wet
Bulb
Dew-
point
24-hr
Max
24-hr
Min
Relative
Humidity
Atmospheric
Pressure
Avg
Speed
Avg
Dir
Spot
Speed
Spot
Dir
Max
Speed
Max
Dir
  Rate Situation Start End 1 hr 3 hr 6 hr 12 hr 24 hr   Situation
Date Time °F °F °F °F % in Hg mph ° mph ° mph ° Y/N in/hr text Date Time Date Time in in in in in mi text
04/18/2019 12:05 AM x x x x x Not Reported 4.47 SW 4.70 SW 7.61 SW No 0.000 No Precipitation 04/16/2019 10:44 AM 04/16/2019 11:43 AM 0.000 0.000 0.000 0.000 0.000 1.24 Clear
04/18/2019 12:20 AM x x x x x Not Reported 5.59 SW 5.37 SW 7.16 SW No 0.000 No Precipitation 04/16/2019 10:44 AM 04/16/2019 11:43 AM 0.000 0.000 0.000 0.000 0.000 1.24 Clear
04/18/2019 12:35 AM x x x x x Not Reported 4.25 SW 4.92 SW 6.04 SW No 0.000 No Precipitation 04/16/2019 10:44 AM 04/16/2019 11:43 AM 0.000 0.000 0.000 0.000 0.000 1.24 Clear
04/18/2019 12:50 AM x x x x x Not Reported 3.58 SW 4.47 SW 5.82 SW No 0.000 No Precipitation 04/16/2019 10:44 AM 04/16/2019 11:43 AM 0.000 0.000 0.000 0.000 0.000 1.24 Clear
04/18/2019 01:05 AM x x x x x Not Reported 4.47 SW 4.92 SW 6.93 W No 0.000 No Precipitation 04/16/2019 10:44 AM 04/16/2019 11:43 AM 0.000 0.000 0.000 0.000 0.000 1.24 Clear
04/18/2019 01:20 AM x x x x x Not Reported 4.47 SW 4.25 SW 7.38 SW No 0.000 No Precipitation 04/16/2019 10:44 AM 04/16/2019 11:43 AM 0.000 0.000 0.000 0.000 0.000 1.24 Clear
04/18/2019 01:35 AM x x x x x Not Reported 4.25 SW 4.47 SW 6.49 S No 0.000 No Precipitation 04/16/2019 10:44 AM 04/16/2019 11:43 AM 0.000 0.000 0.000 0.000 0.000 1.24 Clear
04/18/2019 01:50 AM x x x x x Not Reported 4.47 SW 4.47 SW 7.16 SW No 0.000 No Precipitation 04/16/2019 10:44 AM 04/16/2019 11:43 AM 0.000 0.000 0.000 0.000 0.000 1.24 Clear
04/18/2019 02:05 AM x x x x x Not Reported 4.25 SW 4.70 SW 7.61 SW No 0.000 No Precipitation 04/16/2019 10:44 AM 04/16/2019 11:43 AM 0.000 0.000 0.000 0.000 0.000 1.24 Clear
04/18/2019 02:20 AM x x x x x Not Reported 4.47 SW 5.37 S 6.04 SW No 0.000 No Precipitation 04/16/2019 10:44 AM 04/16/2019 11:43 AM 0.000 0.000 0.000 0.000 0.000 1.24 Clear
04/18/2019 02:35 AM x x x x x Not Reported 3.80 SW 3.58 SW 6.26 SW No 0.000 No Precipitation 04/16/2019 10:44 AM 04/16/2019 11:43 AM 0.000 0.000 0.000 0.000 0.000 1.24 Clear
04/18/2019 02:50 AM x x x x x Not Reported 4.70 SW 4.25 SW 5.82 SW No 0.000 No Precipitation 04/16/2019 10:44 AM 04/16/2019 11:43 AM 0.000 0.000 0.000 0.000 0.000 1.24 Clear
04/18/2019 03:05 AM x x x x x Not Reported 3.80 S 3.13 S 6.04 SW No 0.000 No Precipitation 04/16/2019 10:44 AM 04/16/2019 11:43 AM 0.000 0.000 0.000 0.000 0.000 1.24 Clear
04/18/2019 03:20 AM x x x x x Not Reported 4.92 S 4.92 SW 6.93 S No 0.000 No Precipitation 04/16/2019 10:44 AM 04/16/2019 11:43 AM 0.000 0.000 0.000 0.000 0.000 1.24 Clear
04/18/2019 03:35 AM x x x x x Not Reported 5.14 SW 5.37 SW 6.26 SW No 0.000 No Precipitation 04/16/2019 10:44 AM 04/16/2019 11:43 AM 0.000 0.000 0.000 0.000 0.000 1.24 Clear
04/18/2019 03:50 AM x x x x x Not Reported 4.70 S 5.37 SW 6.93 S No 0.000 No Precipitation 04/16/2019 10:44 AM 04/16/2019 11:43 AM 0.000 0.000 0.000 0.000 0.000 1.24 Clear
04/18/2019 04:05 AM x x x x x Not Reported 4.25 S 2.91 S 7.61 SE No 0.000 No Precipitation 04/16/2019 10:44 AM 04/16/2019 11:43 AM 0.000 0.000 0.000 0.000 0.000 1.24 Clear
04/18/2019 04:20 AM x x x x x Not Reported 5.37 S 6.26 S 8.05 S No 0.000 No Precipitation 04/16/2019 10:44 AM 04/16/2019 11:43 AM 0.000 0.000 0.000 0.000 0.000 1.24 Clear
04/18/2019 04:35 AM x x x x x Not Reported 4.92 S 4.47 S 8.95 S No 0.000 No Precipitation 04/16/2019 10:44 AM 04/16/2019 11:43 AM 0.000 0.000 0.000 0.000 0.000 1.24 Clear
04/18/2019 04:50 AM x x x x x Not Reported 6.26 SW 6.49 SW 7.83 S No 0.000 No Precipitation 04/16/2019 10:44 AM 04/16/2019 11:43 AM 0.000 0.000 0.000 0.000 0.000 1.24 Clear
04/18/2019 05:20 AM x x x x x Not Reported 4.03 S 3.58 S 5.59 S No 0.000 No Precipitation 04/16/2019 10:44 AM 04/16/2019 11:43 AM 0.000 0.000 0.000 0.000 0.000 1.24 Clear
04/18/2019 05:35 AM x x x x x Not Reported 5.14 S 5.37 S 6.26 S No 0.000 No Precipitation 04/16/2019 10:44 AM 04/16/2019 11:43 AM 0.000 0.000 0.000 0.000 0.000 1.24 Clear
04/18/2019 05:50 AM x x x x x Not Reported 3.58 SW 4.03 SW 5.14 S No 0.000 No Precipitation 04/16/2019 10:44 AM 04/16/2019 11:43 AM 0.000 0.000 0.000 0.000 0.000 1.24 Clear
04/18/2019 06:05 AM x x x x x Not Reported 2.91 SW 2.91 SW 4.92 SW No 0.000 No Precipitation 04/16/2019 10:44 AM 04/16/2019 11:43 AM 0.000 0.000 0.000 0.000 0.000 1.24 Clear
04/18/2019 06:20 AM x x x x x Not Reported 4.03 SW 4.25 SW 4.92 SW No 0.000 No Precipitation 04/16/2019 10:44 AM 04/16/2019 11:43 AM 0.000 0.000 0.000 0.000 0.000 1.24 Clear
04/18/2019 06:35 AM x x x x x Not Reported 3.58 SW 2.46 SE 5.37 SW No 0.000 No Precipitation 04/16/2019 10:44 AM 04/16/2019 11:43 AM 0.000 0.000 0.000 0.000 0.000 1.24 Clear
04/18/2019 06:50 AM x x x x x Not Reported 3.13 SW 3.36 SW 4.92 SW No 0.000 No Precipitation 04/16/2019 10:44 AM 04/16/2019 11:43 AM 0.000 0.000 0.000 0.000 0.000 1.24 Clear
04/18/2019 07:05 AM x x x x x Not Reported 2.91 SW 3.36 SW 5.59 SW No 0.000 No Precipitation 04/16/2019 10:44 AM 04/16/2019 11:43 AM 0.000 0.000 0.000 0.000 0.000 1.24 Clear
04/18/2019 07:20 AM x x x x x Not Reported 3.80 SW 4.47 SW 5.37 SW No 0.000 No Precipitation 04/16/2019 10:44 AM 04/16/2019 11:43 AM 0.000 0.000 0.000 0.000 0.000 1.24 Clear
04/18/2019 07:50 AM x x x x x Not Reported 3.58 SW 3.80 SW 4.92 SW No 0.000 No Precipitation 04/16/2019 10:44 AM 04/16/2019 11:43 AM 0.000 0.000 0.000 0.000 0.000 1.24 Clear
04/18/2019 08:05 AM x x x x x Not Reported 2.01 NW 2.24 NW 3.58 N No 0.000 No Precipitation 04/16/2019 10:44 AM 04/16/2019 11:43 AM 0.000 0.000 0.000 0.000 0.000 1.24 Clear
04/18/2019 08:20 AM x x x x x Not Reported 1.12 N 0.00 N 0.00 SE No 0.000 No Precipitation 04/16/2019 10:44 AM 04/16/2019 11:43 AM 0.000 0.000 0.000 0.000 0.000 1.24 Clear
04/18/2019 08:35 AM x x x x x Not Reported 1.79 SE 1.57 E 0.00 SE No 0.000 No Precipitation 04/16/2019 10:44 AM 04/16/2019 11:43 AM 0.000 0.000 0.000 0.000 0.000 1.24 Clear
04/18/2019 08:50 AM x x x x x Not Reported 0.00 N 1.57 S 4.03 S No 0.000 No Precipitation 04/16/2019 10:44 AM 04/16/2019 11:43 AM 0.000 0.000 0.000 0.000 0.000 1.24 Clear
04/18/2019 09:05 AM x x x x x Not Reported 1.34 W 1.79 NW 4.92 SE No 0.000 No Precipitation 04/16/2019 10:44 AM 04/16/2019 11:43 AM 0.000 0.000 0.000 0.000 0.000 1.24 Clear
04/18/2019 09:20 AM x x x x x Not Reported 2.46 NW 2.24 NW 4.70 NW No 0.000 No Precipitation 04/16/2019 10:44 AM 04/16/2019 11:43 AM 0.000 0.000 0.000 0.000 0.000 1.24 Clear
04/18/2019 09:35 AM x x x x x Not Reported 3.36 N 3.36 N 5.14 N No 0.000 No Precipitation 04/16/2019 10:44 AM 04/16/2019 11:43 AM 0.000 0.000 0.000 0.000 0.000 1.24 Clear
04/18/2019 09:50 AM x x x x x Not Reported 2.24 N 2.24 N 5.14 NE No 0.000 No Precipitation 04/16/2019 10:44 AM 04/16/2019 11:43 AM 0.000 0.000 0.000 0.000 0.000 1.24 Clear
04/18/2019 10:05 AM x x x x x Not Reported 2.24 NE 2.46 E 4.70 N No 0.000 No Precipitation 04/16/2019 10:44 AM 04/16/2019 11:43 AM 0.000 0.000 0.000 0.000 0.000 1.24 Clear
04/18/2019 10:20 AM x x x x x Not Reported 4.47 NE 4.03 N 6.04 N No 0.000 No Precipitation 04/16/2019 10:44 AM 04/16/2019 11:43 AM 0.000 0.000 0.000 0.000 0.000 1.24 Clear
04/18/2019 10:35 AM x x x x x Not Reported 3.13 NW 3.13 NW 5.82 NE No 0.000 No Precipitation 04/16/2019 10:44 AM 04/16/2019 11:43 AM 0.000 0.000 0.000 0.000 0.000 1.24 Clear
04/18/2019 11:05 AM x x x x x Not Reported 3.80 N 5.59 N 6.04 N No 0.000 No Precipitation 04/16/2019 10:44 AM 04/16/2019 11:43 AM 0.000 0.000 0.000 0.000 0.000 1.24 Clear
04/18/2019 11:20 AM x x x x x Not Reported 2.68 NE 2.91 E 6.71 N No 0.000 No Precipitation 04/16/2019 10:44 AM 04/16/2019 11:43 AM 0.000 0.000 0.000 0.000 0.000 1.24 Clear
04/18/2019 11:35 AM x x x x x Not Reported 2.01 N 2.68 W 7.38 N No 0.000 No Precipitation 04/16/2019 10:44 AM 04/16/2019 11:43 AM 0.000 0.000 0.000 0.000 0.000 1.24 Clear
04/18/2019 11:50 AM x x x x x Not Reported 3.58 NW 6.26 N 6.49 N No 0.000 No Precipitation 04/16/2019 10:44 AM 04/16/2019 11:43 AM 0.000 0.000 0.000 0.000 0.000 1.24 Clear
04/18/2019 12:05 PM x x x x x Not Reported 1.34 E 3.58 SE 8.28 NE No 0.000 No Precipitation 04/16/2019 10:44 AM 04/16/2019 11:43 AM 0.000 0.000 0.000 0.000 0.000 1.24 Clear
04/18/2019 12:20 PM x x x x x Not Reported 3.80 NE 3.58 E 8.50 NE No 0.000 No Precipitation 04/16/2019 10:44 AM 04/16/2019 11:43 AM 0.000 0.000 0.000 0.000 0.000 1.24 Clear
04/18/2019 12:35 PM x x x x x Not Reported 4.25 N 3.13 NW 8.05 NE No 0.000 No Precipitation 04/16/2019 10:44 AM 04/16/2019 11:43 AM 0.000 0.000 0.000 0.000 0.000 1.24 Clear
04/18/2019 12:50 PM x x x x x Not Reported 4.70 NE 4.03 E 7.83 NE No 0.000 No Precipitation 04/16/2019 10:44 AM 04/16/2019 11:43 AM 0.000 0.000 0.000 0.000 0.000 1.24 Clear
04/18/2019 01:05 PM x x x x x Not Reported 4.47 NE 3.80 NE 8.72 E No 0.000 No Precipitation 04/16/2019 10:44 AM 04/16/2019 11:43 AM 0.000 0.000 0.000 0.000 0.000 1.24 Clear
04/18/2019 01:20 PM x x x x x Not Reported 6.26 NE 6.49 NE 9.40 NE No 0.000 No Precipitation 04/16/2019 10:44 AM 04/16/2019 11:43 AM 0.000 0.000 0.000 0.000 0.000 1.24 Clear
04/18/2019 01:35 PM x x x x x Not Reported 4.92 SE 3.13 E 9.62 NE No 0.000 No Precipitation 04/16/2019 10:44 AM 04/16/2019 11:43 AM 0.000 0.000 0.000 0.000 0.000 1.24 Clear
04/18/2019 01:50 PM x x x x x Not Reported 4.92 NE 4.03 NE 8.72 NE No 0.000 No Precipitation 04/16/2019 10:44 AM 04/16/2019 11:43 AM 0.000 0.000 0.000 0.000 0.000 1.24 Clear
04/18/2019 02:05 PM x x x x x Not Reported 5.14 NE 4.92 NE 7.38 NE No 0.000 No Precipitation 04/16/2019 10:44 AM 04/16/2019 11:43 AM 0.000 0.000 0.000 0.000 0.000 1.24 Clear
04/18/2019 02:20 PM x x x x x Not Reported 2.46 NE 5.59 NW 6.26 NE No 0.000 No Precipitation 04/16/2019 10:44 AM 04/16/2019 11:43 AM 0.000 0.000 0.000 0.000 0.000 1.24 Clear
04/18/2019 02:35 PM x x x x x Not Reported 5.14 E 6.04 NE 8.50 E No 0.000 No Precipitation 04/16/2019 10:44 AM 04/16/2019 11:43 AM 0.000 0.000 0.000 0.000 0.000 1.24 Clear
04/18/2019 02:50 PM x x x x x Not Reported 2.91 NE 7.16 E 8.28 E No 0.000 No Precipitation 04/16/2019 10:44 AM 04/16/2019 11:43 AM 0.000 0.000 0.000 0.000 0.000 1.24 Clear
04/18/2019 03:05 PM x x x x x Not Reported 4.25 NW 3.58 NW 9.62 NE No 0.000 No Precipitation 04/16/2019 10:44 AM 04/16/2019 11:43 AM 0.000 0.000 0.000 0.000 0.000 1.24 Clear
04/18/2019 03:20 PM x x x x x Not Reported 4.92 N 6.93 NE 10.51 N No 0.000 No Precipitation 04/16/2019 10:44 AM 04/16/2019 11:43 AM 0.000 0.000 0.000 0.000 0.000 1.24 Clear
04/18/2019 03:35 PM x x x x x Not Reported 6.04 E 8.50 E 8.95 N No 0.000 No Precipitation 04/16/2019 10:44 AM 04/16/2019 11:43 AM 0.000 0.000 0.000 0.000 0.000 1.24 Clear
04/18/2019 03:50 PM x x x x x Not Reported 6.04 NE 5.59 E 8.95 E No 0.000 No Precipitation 04/16/2019 10:44 AM 04/16/2019 11:43 AM 0.000 0.000 0.000 0.000 0.000 1.24 Clear
04/18/2019 04:05 PM x x x x x Not Reported 2.46 N 1.79 NE 9.84 NE No 0.000 No Precipitation 04/16/2019 10:44 AM 04/16/2019 11:43 AM 0.000 0.000 0.000 0.000 0.000 1.24 Clear
04/18/2019 04:20 PM x x x x x Not Reported 3.36 E 6.26 NE 8.50 NE No 0.000 No Precipitation 04/16/2019 10:44 AM 04/16/2019 11:43 AM 0.000 0.000 0.000 0.000 0.000 1.24 Clear
04/18/2019 04:35 PM x x x x x Not Reported 6.26 E 3.36 E 8.95 E No 0.000 No Precipitation 04/16/2019 10:44 AM 04/16/2019 11:43 AM 0.000 0.000 0.000 0.000 0.000 1.24 Clear
04/18/2019 04:50 PM x x x x x Not Reported 5.82 NE 5.37 NE 8.72 NE No 0.000 No Precipitation 04/16/2019 10:44 AM 04/16/2019 11:43 AM 0.000 0.000 0.000 0.000 0.000 1.24 Clear
04/18/2019 05:05 PM x x x x x Not Reported 5.37 E 6.71 NE 8.72 NE No 0.000 No Precipitation 04/16/2019 10:44 AM 04/16/2019 11:43 AM 0.000 0.000 0.000 0.000 0.000 1.24 Clear
04/18/2019 05:20 PM x x x x x Not Reported 5.14 NE 4.47 E 8.28 NE No 0.000 No Precipitation 04/16/2019 10:44 AM 04/16/2019 11:43 AM 0.000 0.000 0.000 0.000 0.000 1.24 Clear
04/18/2019 05:35 PM x x x x x Not Reported 4.70 NE 4.03 N 7.61 NE No 0.000 No Precipitation 04/16/2019 10:44 AM 04/16/2019 11:43 AM 0.000 0.000 0.000 0.000 0.000 1.24 Clear
04/18/2019 05:50 PM x x x x x Not Reported 3.58 NE 3.36 E 7.83 NE No 0.000 No Precipitation 04/16/2019 10:44 AM 04/16/2019 11:43 AM 0.000 0.000 0.000 0.000 0.000 1.24 Clear
04/18/2019 06:05 PM x x x x x Not Reported 4.25 NE 3.36 NE 6.71 NE No 0.000 No Precipitation 04/16/2019 10:44 AM 04/16/2019 11:43 AM 0.000 0.000 0.000 0.000 0.000 1.24 Clear
04/18/2019 06:20 PM x x x x x Not Reported 3.58 E 4.25 NE 6.71 E No 0.000 No Precipitation 04/16/2019 10:44 AM 04/16/2019 11:43 AM 0.000 0.000 0.000 0.000 0.000 1.24 Clear
04/18/2019 06:35 PM x x x x x Not Reported 2.24 N 3.80 NW 4.92 E No 0.000 No Precipitation 04/16/2019 10:44 AM 04/16/2019 11:43 AM 0.000 0.000 0.000 0.000 0.000 1.24 Clear
04/18/2019 06:50 PM x x x x x Not Reported 4.70 W 4.92 W 7.61 NW No 0.000 No Precipitation 04/16/2019 10:44 AM 04/16/2019 11:43 AM 0.000 0.000 0.000 0.000 0.000 1.24 Clear
04/18/2019 07:05 PM x x x x x Not Reported 4.03 NW 4.92 NW 7.61 NW No 0.000 No Precipitation 04/16/2019 10:44 AM 04/16/2019 11:43 AM 0.000 0.000 0.000 0.000 0.000 1.24 Clear
04/18/2019 07:20 PM x x x x x Not Reported 2.01 NW 2.46 NW 5.37 NW No 0.000 No Precipitation 04/16/2019 10:44 AM 04/16/2019 11:43 AM 0.000 0.000 0.000 0.000 0.000 1.24 Clear
04/18/2019 07:35 PM x x x x x Not Reported 2.91 N 3.58 N 4.47 N No 0.000 No Precipitation 04/16/2019 10:44 AM 04/16/2019 11:43 AM 0.000 0.000 0.000 0.000 0.000 1.24 Clear
04/18/2019 07:50 PM x x x x x Not Reported 2.24 N 1.79 N 3.58 N No 0.000 No Precipitation 04/16/2019 10:44 AM 04/16/2019 11:43 AM 0.000 0.000 0.000 0.000 0.000 1.24 Clear
04/18/2019 08:05 PM x x x x x Not Reported 2.01 NW 2.01 NW 3.13 NW No 0.000 No Precipitation 04/16/2019 10:44 AM 04/16/2019 11:43 AM 0.000 0.000 0.000 0.000 0.000 1.24 Clear
04/18/2019 08:20 PM x x x x x Not Reported 4.70 W 4.92 W 8.72 W No 0.000 No Precipitation 04/16/2019 10:44 AM 04/16/2019 11:43 AM 0.000 0.000 0.000 0.000 0.000 1.24 Clear
04/18/2019 08:35 PM x x x x x Not Reported 6.49 W 7.61 W 9.84 W No 0.000 No Precipitation 04/16/2019 10:44 AM 04/16/2019 11:43 AM 0.000 0.000 0.000 0.000 0.000 1.24 Clear
04/18/2019 08:50 PM x x x x x Not Reported 6.71 W 4.25 NW 10.29 W No 0.000 No Precipitation 04/16/2019 10:44 AM 04/16/2019 11:43 AM 0.000 0.000 0.000 0.000 0.000 1.24 Clear
04/18/2019 09:05 PM x x x x x Not Reported 5.37 W 5.37 W 6.71 W No 0.000 No Precipitation 04/16/2019 10:44 AM 04/16/2019 11:43 AM 0.000 0.000 0.000 0.000 0.000 1.24 Clear
04/18/2019 09:20 PM x x x x x Not Reported 4.92 W 5.82 W 8.50 W No 0.000 No Precipitation 04/16/2019 10:44 AM 04/16/2019 11:43 AM 0.000 0.000 0.000 0.000 0.000 1.24 Clear
04/18/2019 09:35 PM x x x x x Not Reported 6.04 W 6.26 W 8.28 SW No 0.000 No Precipitation 04/16/2019 10:44 AM 04/16/2019 11:43 AM 0.000 0.000 0.000 0.000 0.000 1.24 Clear
04/18/2019 09:50 PM x x x x x Not Reported 5.14 SW 4.92 SW 8.05 W No 0.000 No Precipitation 04/16/2019 10:44 AM 04/16/2019 11:43 AM 0.000 0.000 0.000 0.000 0.000 1.24 Clear
04/18/2019 10:05 PM x x x x x Not Reported 4.70 SW 5.82 SW 6.71 W No 0.000 No Precipitation 04/16/2019 10:44 AM 04/16/2019 11:43 AM 0.000 0.000 0.000 0.000 0.000 1.24 Clear
04/18/2019 10:20 PM x x x x x Not Reported 6.04 SW 6.93 W 7.38 SW No 0.000 No Precipitation 04/16/2019 10:44 AM 04/16/2019 11:43 AM 0.000 0.000 0.000 0.000 0.000 1.24 Clear
04/18/2019 10:35 PM x x x x x Not Reported 4.25 SW 4.92 SW 6.26 SW No 0.000 No Precipitation 04/16/2019 10:44 AM 04/16/2019 11:43 AM 0.000 0.000 0.000 0.000 0.000 1.24 Clear
04/18/2019 10:50 PM x x x x x Not Reported 4.47 SW 4.25 SW 6.71 SW No 0.000 No Precipitation 04/16/2019 10:44 AM 04/16/2019 11:43 AM 0.000 0.000 0.000 0.000 0.000 1.24 Clear
04/18/2019 11:05 PM x x x x x Not Reported 4.70 SW 2.68 S 6.71 SW No 0.000 No Precipitation 04/16/2019 10:44 AM 04/16/2019 11:43 AM 0.000 0.000 0.000 0.000 0.000 1.24 Clear
04/18/2019 11:20 PM x x x x x Not Reported 6.04 SW 6.49 SW 7.83 S No 0.000 No Precipitation 04/16/2019 10:44 AM 04/16/2019 11:43 AM 0.000 0.000 0.000 0.000 0.000 1.24 Clear
04/18/2019 11:35 PM x x x x x Not Reported 3.80 SW 4.03 SW 5.82 SW No 0.000 No Precipitation 04/16/2019 10:44 AM 04/16/2019 11:43 AM 0.000 0.000 0.000 0.000 0.000 1.24 Clear
04/18/2019 11:50 PM x x x x x Not Reported 5.82 SW 5.37 SW 6.93 SW No 0.000 No Precipitation 04/16/2019 10:44 AM 04/16/2019 11:43 AM 0.000 0.000 0.000 0.000 0.000 1.24 Clear